createdAt,value
2023-09-26T00:00:25.188Z,95927.97
2023-09-26T00:01:27.670Z,95936.09
2023-09-26T00:02:29.391Z,95939.31
2023-09-26T00:03:30.972Z,95931.41
2023-09-26T00:04:33.332Z,95935.66
2023-09-26T00:05:35.001Z,95935.66
2023-09-26T00:06:36.555Z,95929.38
2023-09-26T00:07:38.340Z,95929.81
2023-09-26T00:08:39.973Z,95931.22
2023-09-26T00:09:41.564Z,95934.47
2023-09-26T00:10:43.250Z,95930.22
2023-09-26T00:11:47.191Z,95930.47
2023-09-26T00:12:48.980Z,95931.25
2023-09-26T00:13:51.594Z,95939.16
2023-09-26T00:14:53.459Z,95932.88
2023-09-26T00:15:57.346Z,95937.13
2023-09-26T00:16:59.408Z,95932.06
2023-09-26T00:18:03.598Z,95929.22
2023-09-26T00:19:05.259Z,95935.31
2023-09-26T00:20:33.201Z,95933.88
2023-09-26T00:21:34.892Z,95930.66
2023-09-26T00:22:39.256Z,95938.41
2023-09-26T00:23:40.977Z,95940.69
2023-09-26T00:24:42.543Z,95938.25
2023-09-26T00:25:48.349Z,95934.88
2023-09-26T00:26:50.013Z,95942.19
2023-09-26T00:27:54.624Z,95942.03
2023-09-26T00:28:56.288Z,95936.59
2023-09-26T00:30:00.591Z,95927.88
2023-09-26T00:31:06.298Z,95941.28
2023-09-26T00:32:08.123Z,95934.41
2023-09-26T00:33:13.400Z,95935.00
2023-09-26T00:34:19.171Z,95935.00
2023-09-26T00:35:20.937Z,95931.34
2023-09-26T00:36:22.718Z,95939.25
2023-09-26T00:37:24.503Z,95938.00
2023-09-26T00:38:26.230Z,95931.75
2023-09-26T00:39:29.753Z,95936.22
2023-09-26T00:40:31.346Z,95934.41
2023-09-26T00:41:35.887Z,95940.69
2023-09-26T00:42:37.568Z,95940.69
2023-09-26T00:43:39.193Z,95936.44
2023-09-26T00:44:40.737Z,95942.50
2023-09-26T00:45:45.331Z,95940.47
2023-09-26T00:46:49.322Z,95938.06
2023-09-26T00:47:51.055Z,95940.88
2023-09-26T00:48:52.835Z,95942.50
2023-09-26T00:49:54.421Z,95944.34
2023-09-26T00:50:56.404Z,95934.41
2023-09-26T00:52:01.469Z,95939.66
2023-09-26T00:53:04.871Z,95941.28
2023-09-26T00:54:10.362Z,95937.63
2023-09-26T00:55:14.816Z,95942.66
2023-09-26T00:56:18.894Z,95937.41
2023-09-26T00:57:21.353Z,95924.22
2023-09-26T00:58:23.836Z,95935.59
2023-09-26T00:59:30.660Z,95930.31
2023-09-26T01:00:33.011Z,95925.03
2023-09-26T01:01:35.779Z,95927.69
2023-09-26T01:02:37.902Z,95930.09
2023-09-26T01:03:39.686Z,95932.28
2023-09-26T01:04:42.101Z,95938.38
2023-09-26T01:05:43.800Z,95937.34
2023-09-26T01:06:48.298Z,95940.00
2023-09-26T01:07:50.490Z,95942.63
2023-09-26T01:08:52.176Z,95934.72
2023-09-26T01:09:54.107Z,95942.41
2023-09-26T01:10:55.771Z,95937.94
2023-09-26T01:11:57.418Z,95937.94
2023-09-26T01:12:59.405Z,95944.81
2023-09-26T01:14:01.100Z,95936.09
2023-09-26T01:15:04.379Z,95941.59
2023-09-26T01:16:19.319Z,95934.72
2023-09-26T01:17:23.249Z,95933.09
2023-09-26T01:18:28.121Z,95930.91
2023-09-26T01:19:29.680Z,95934.56
2023-09-26T01:20:33.700Z,95939.59
2023-09-26T01:21:35.289Z,95931.94
2023-09-26T01:22:37.082Z,95931.69
2023-09-26T01:23:41.122Z,95936.16
2023-09-26T01:24:42.682Z,95936.16
2023-09-26T01:25:47.153Z,95938.81
2023-09-26T01:26:48.756Z,95935.16
2023-09-26T01:27:50.433Z,95926.66
2023-09-26T01:28:55.281Z,95929.88
2023-09-26T01:29:57.023Z,95935.34
2023-09-26T01:30:58.740Z,95925.63
2023-09-26T01:32:00.391Z,95931.94
2023-09-26T01:33:03.520Z,95923.44
2023-09-26T01:34:05.461Z,95927.44
2023-09-26T01:35:07.458Z,95926.66
2023-09-26T01:36:09.168Z,95928.28
2023-09-26T01:37:10.753Z,95923.00
2023-09-26T01:38:12.919Z,95919.34
2023-09-26T01:39:14.821Z,95921.81
2023-09-26T01:40:18.535Z,95919.97
2023-09-26T01:41:21.129Z,95918.16
2023-09-26T01:42:23.248Z,95922.41
2023-09-26T01:43:26.201Z,95919.78
2023-09-26T01:44:28.933Z,95911.88
2023-09-26T01:45:30.544Z,95914.94
2023-09-26T01:46:34.628Z,95914.94
2023-09-26T01:47:42.695Z,95921.00
2023-09-26T01:48:44.417Z,95915.97
2023-09-26T01:49:46.007Z,95915.97
2023-09-26T01:50:47.718Z,95922.69
2023-09-26T01:51:49.294Z,95922.28
2023-09-26T01:52:53.804Z,95923.53
2023-09-26T01:53:55.365Z,95920.28
2023-09-26T01:54:59.868Z,95920.72
2023-09-26T01:56:01.798Z,95922.97
2023-09-26T01:57:03.397Z,95920.78
2023-09-26T01:58:05.118Z,95922.22
2023-09-26T01:59:06.774Z,95924.47
2023-09-26T02:01:53.288Z,95926.56
2023-09-26T02:02:55.045Z,95918.88
2023-09-26T02:03:56.694Z,95923.34
2023-09-26T02:04:58.317Z,95924.94
2023-09-26T02:06:00.173Z,95934.66
2023-09-26T02:07:01.932Z,95934.66
2023-09-26T02:08:05.850Z,95930.84
2023-09-26T02:09:10.681Z,95928.19
2023-09-26T02:10:12.395Z,95923.72
2023-09-26T02:11:14.005Z,95922.50
2023-09-26T02:12:16.130Z,95924.13
2023-09-26T02:13:17.800Z,95923.94
2023-09-26T02:14:19.472Z,95922.91
2023-09-26T02:15:21.286Z,95929.56
2023-09-26T02:16:22.958Z,95927.16
2023-09-26T02:17:24.615Z,95928.97
2023-09-26T02:18:26.240Z,95921.66
2023-09-26T02:19:27.919Z,95930.16
2023-09-26T02:20:29.566Z,95925.91
2023-09-26T02:21:34.078Z,95927.53
2023-09-26T02:22:36.526Z,95926.50
2023-09-26T02:23:38.099Z,95926.50
2023-09-26T02:24:39.815Z,95923.06
2023-09-26T02:25:41.376Z,95932.59
2023-09-26T02:26:42.910Z,95925.47
2023-09-26T02:27:44.852Z,95930.56
2023-09-26T02:28:48.809Z,95926.06
2023-09-26T02:29:50.370Z,95928.50
2023-09-26T02:30:52.014Z,95927.69
2023-09-26T02:31:53.649Z,95929.31
2023-09-26T02:32:55.610Z,95926.66
2023-09-26T02:33:57.613Z,95933.78
2023-09-26T02:35:01.676Z,95920.81
2023-09-26T02:36:03.294Z,95930.13
2023-09-26T02:37:04.936Z,95926.50
2023-09-26T02:38:06.519Z,95931.78
2023-09-26T02:39:08.100Z,95925.47
2023-09-26T02:40:11.074Z,95920.44
2023-09-26T02:41:16.387Z,95917.59
2023-09-26T02:42:17.942Z,95919.63
2023-09-26T02:43:19.712Z,95922.47
2023-09-26T02:44:21.283Z,95919.47
2023-09-26T02:45:23.518Z,95919.69
2023-09-26T02:46:25.385Z,95917.25
2023-09-26T02:47:27.164Z,95917.25
2023-09-26T02:48:31.318Z,95919.88
2023-09-26T02:49:35.385Z,95918.47
2023-09-26T02:50:36.940Z,95919.72
2023-09-26T02:51:38.489Z,95919.47
2023-09-26T02:52:42.095Z,95921.31
2023-09-26T02:53:43.876Z,95921.31
2023-09-26T02:54:47.989Z,95913.19
2023-09-26T02:55:51.764Z,95915.03
2023-09-26T02:56:53.295Z,95914.03
2023-09-26T02:57:54.886Z,95912.44
2023-09-26T02:58:59.719Z,95917.06
2023-09-26T03:00:01.407Z,95912.00
2023-09-26T03:01:04.507Z,95917.09
2023-09-26T03:02:07.344Z,95911.66
2023-09-26T03:03:09.044Z,95909.81
2023-09-26T03:04:10.779Z,95908.78
2023-09-26T03:05:12.716Z,95912.00
2023-09-26T03:06:17.618Z,95912.00
2023-09-26T03:07:19.319Z,95910.19
2023-09-26T03:08:21.017Z,95911.81
2023-09-26T03:09:25.391Z,95909.19
2023-09-26T03:10:27.006Z,95903.09
2023-09-26T03:11:28.734Z,95908.38
2023-09-26T03:12:30.253Z,95900.25
2023-09-26T03:13:34.544Z,95896.22
2023-09-26T03:14:38.607Z,95899.44
2023-09-26T03:15:42.312Z,95896.22
2023-09-26T03:16:44.629Z,95892.19
2023-09-26T03:17:49.365Z,95888.16
2023-09-26T03:18:56.364Z,95897.88
2023-09-26T03:19:58.053Z,95897.88
2023-09-26T03:21:02.203Z,95894.25
2023-09-26T03:22:04.487Z,95888.16
2023-09-26T03:23:08.499Z,95891.38
2023-09-26T03:24:10.918Z,95903.94
2023-09-26T03:25:13.051Z,95895.84
2023-09-26T03:26:15.849Z,95894.25
2023-09-26T03:27:17.426Z,95892.63
2023-09-26T03:28:19.278Z,95897.06
2023-09-26T03:29:23.060Z,95895.88
2023-09-26T03:30:28.489Z,95905.78
2023-09-26T03:31:30.167Z,95898.31
2023-09-26T03:32:31.887Z,95900.19
2023-09-26T03:33:36.655Z,95905.06
2023-09-26T03:34:38.218Z,95903.66
2023-09-26T03:35:39.821Z,95903.06
2023-09-26T03:36:41.478Z,95902.47
2023-09-26T03:37:43.039Z,95903.25
2023-09-26T03:38:44.605Z,95907.50
2023-09-26T03:39:47.861Z,95904.28
2023-09-26T03:41:01.570Z,95915.38
2023-09-26T03:42:03.140Z,95912.75
2023-09-26T03:43:04.891Z,95915.38
2023-09-26T03:44:06.990Z,95913.78
2023-09-26T03:45:09.536Z,95913.78
2023-09-26T03:46:11.316Z,95914.38
2023-09-26T03:47:12.966Z,95915.00
2023-09-26T03:48:14.631Z,95909.75
2023-09-26T03:49:16.400Z,95907.69
2023-09-26T03:50:20.550Z,95911.94
2023-09-26T03:51:22.109Z,95905.88
2023-09-26T03:52:24.359Z,95910.34
2023-09-26T03:53:26.077Z,95909.50
2023-09-26T03:54:28.969Z,95911.34
2023-09-26T03:55:30.687Z,95906.88
2023-09-26T03:56:32.254Z,95908.72
2023-09-26T03:57:34.162Z,95904.25
2023-09-26T03:58:36.137Z,95912.13
2023-09-26T03:59:37.775Z,95911.34
2023-09-26T04:00:39.349Z,95903.47
2023-09-26T04:01:41.540Z,95909.75
2023-09-26T04:02:44.122Z,95909.94
2023-09-26T04:03:50.256Z,95904.88
2023-09-26T04:04:52.384Z,95905.28
2023-09-26T04:05:57.454Z,95904.69
2023-09-26T04:06:59.460Z,95907.16
2023-09-26T04:08:04.243Z,95909.41
2023-09-26T04:09:08.326Z,95897.25
2023-09-26T04:10:10.197Z,95905.78
2023-09-26T04:11:15.588Z,95903.38
2023-09-26T04:12:21.883Z,95902.78
2023-09-26T04:13:23.454Z,95902.16
2023-09-26T04:14:26.179Z,95907.63
2023-09-26T04:15:27.723Z,95904.41
2023-09-26T04:16:29.298Z,95902.78
2023-09-26T04:17:31.054Z,95901.59
2023-09-26T04:18:32.875Z,95896.94
2023-09-26T04:19:34.486Z,95902.66
2023-09-26T04:20:38.013Z,95901.03
2023-09-26T04:21:40.097Z,95900.22
2023-09-26T04:22:41.683Z,95897.41
2023-09-26T04:23:46.238Z,95901.63
2023-09-26T04:24:47.756Z,95902.66
2023-09-26T04:25:49.307Z,95905.88
2023-09-26T04:26:50.981Z,95902.44
2023-09-26T04:27:53.264Z,95904.03
2023-09-26T04:28:54.877Z,95905.88
2023-09-26T04:29:56.570Z,95892.31
2023-09-26T04:31:30.738Z,95892.72
2023-09-26T04:32:33.503Z,95890.06
2023-09-26T04:33:35.256Z,95887.25
2023-09-26T04:34:36.834Z,95892.13
2023-09-26T04:35:40.920Z,95892.91
2023-09-26T04:36:44.886Z,95892.09
2023-09-26T04:37:49.236Z,95889.69
2023-09-26T04:38:51.120Z,95891.31
2023-09-26T04:39:52.709Z,95887.91
2023-09-26T04:40:56.909Z,95891.72
2023-09-26T04:41:58.638Z,95888.88
2023-09-26T04:43:06.645Z,95887.91
2023-09-26T04:44:10.680Z,95892.13
2023-09-26T04:45:12.428Z,95882.41
2023-09-26T04:46:17.655Z,95881.63
2023-09-26T04:47:19.449Z,95883.84
2023-09-26T04:48:26.134Z,95881.44
2023-09-26T04:49:27.950Z,95875.16
2023-09-26T04:50:32.718Z,95882.22
2023-09-26T04:51:34.342Z,95876.84
2023-09-26T04:52:37.222Z,95882.06
2023-09-26T04:53:41.218Z,95878.63
2023-09-26T04:54:43.324Z,95874.97
2023-09-26T04:55:49.859Z,95877.59
2023-09-26T04:56:51.602Z,95877.59
2023-09-26T04:57:54.184Z,95880.88
2023-09-26T04:59:00.627Z,95876.03
2023-09-26T05:00:07.014Z,95875.78
2023-09-26T05:01:17.774Z,95878.81
2023-09-26T05:02:19.491Z,95877.44
2023-09-26T05:03:21.154Z,95878.66
2023-09-26T05:04:23.257Z,95882.47
2023-09-26T05:05:29.360Z,95883.88
2023-09-26T05:06:31.242Z,95883.66
2023-09-26T05:07:32.990Z,95882.69
2023-09-26T05:08:34.597Z,95892.19
2023-09-26T05:09:38.149Z,95888.91
2023-09-26T05:10:40.099Z,95886.50
2023-09-26T05:11:41.808Z,95886.09
2023-09-26T05:12:43.690Z,95888.97
2023-09-26T05:13:45.800Z,95888.53
2023-09-26T05:14:49.673Z,95888.72
2023-09-26T05:15:52.212Z,95893.75
2023-09-26T05:16:54.210Z,95894.34
2023-09-26T05:17:56.078Z,95895.00
2023-09-26T05:18:57.817Z,95895.38
2023-09-26T05:20:01.786Z,95895.78
2023-09-26T05:21:07.079Z,95900.06
2023-09-26T05:22:09.202Z,95893.56
2023-09-26T05:23:10.983Z,95892.38
2023-09-26T05:24:12.877Z,95895.59
2023-09-26T05:25:15.085Z,95893.56
2023-09-26T05:26:17.073Z,95897.81
2023-09-26T05:27:18.709Z,95902.66
2023-09-26T05:28:20.356Z,95899.66
2023-09-26T05:29:22.257Z,95896.56
2023-09-26T05:30:23.958Z,95899.59
2023-09-26T05:31:29.453Z,95899.25
2023-09-26T05:32:31.378Z,95898.59
2023-09-26T05:33:36.324Z,95900.63
2023-09-26T05:34:38.064Z,95900.63
2023-09-26T05:35:40.324Z,95908.28
2023-09-26T05:36:42.029Z,95900.41
2023-09-26T05:37:43.618Z,95902.28
2023-09-26T05:38:45.418Z,95910.31
2023-09-26T05:39:46.993Z,95916.44
2023-09-26T05:40:50.795Z,95914.19
2023-09-26T05:41:53.085Z,95916.41
2023-09-26T05:42:54.786Z,95920.03
2023-09-26T05:43:56.427Z,95910.56
2023-09-26T05:45:00.864Z,95914.59
2023-09-26T05:46:05.275Z,95908.91
2023-09-26T05:47:07.348Z,95907.31
2023-09-26T05:48:11.445Z,95918.44
2023-09-26T05:49:15.575Z,95911.13
2023-09-26T05:50:17.380Z,95911.75
2023-09-26T05:51:18.966Z,95915.63
2023-09-26T05:52:23.598Z,95921.25
2023-09-26T05:53:25.330Z,95921.19
2023-09-26T05:54:32.062Z,95920.03
2023-09-26T05:55:34.067Z,95920.41
2023-09-26T05:56:38.176Z,95917.97
2023-09-26T05:57:42.099Z,95921.19
2023-09-26T05:58:48.084Z,95923.22
2023-09-26T05:59:51.917Z,95925.00
2023-09-26T06:00:54.824Z,95922.38
2023-09-26T06:01:56.726Z,95925.59
2023-09-26T06:03:00.843Z,95920.72
2023-09-26T06:04:02.732Z,95922.72
2023-09-26T06:05:04.791Z,95927.41
2023-09-26T06:06:08.931Z,95919.69
2023-09-26T06:07:11.050Z,95931.41
2023-09-26T06:08:17.058Z,95923.50
2023-09-26T06:09:19.073Z,95923.50
2023-09-26T06:10:23.100Z,95921.66
2023-09-26T06:11:27.230Z,95920.66
2023-09-26T06:12:31.575Z,95927.16
2023-09-26T06:13:33.443Z,95924.09
2023-09-26T06:14:35.244Z,95923.88
2023-09-26T06:15:37.017Z,95923.50
2023-09-26T06:16:38.789Z,95928.38
2023-09-26T06:17:41.525Z,95934.00
2023-09-26T06:18:46.557Z,95932.16
2023-09-26T06:19:48.601Z,95927.06
2023-09-26T06:20:50.386Z,95931.94
2023-09-26T06:21:52.009Z,95933.59
2023-09-26T06:22:54.142Z,95929.47
2023-09-26T06:23:58.354Z,95932.31
2023-09-26T06:25:01.911Z,95933.16
2023-09-26T06:26:04.317Z,95938.81
2023-09-26T06:27:06.066Z,95931.09
2023-09-26T06:28:08.298Z,95937.59
2023-09-26T06:29:10.185Z,95941.19
2023-09-26T06:30:12.708Z,95940.78
2023-09-26T06:31:15.529Z,95941.97
2023-09-26T06:32:20.152Z,95933.88
2023-09-26T06:33:21.939Z,95942.94
2023-09-26T06:34:23.782Z,95938.28
2023-09-26T06:35:25.630Z,95936.66
2023-09-26T06:36:31.580Z,95938.94
2023-09-26T06:37:33.444Z,95938.66
2023-09-26T06:38:35.298Z,95935.38
2023-09-26T06:39:37.511Z,95931.41
2023-09-26T06:40:40.485Z,95933.34
2023-09-26T06:41:46.739Z,95935.31
2023-09-26T06:42:48.530Z,95928.63
2023-09-26T06:43:50.511Z,95929.78
2023-09-26T06:44:54.740Z,95931.22
2023-09-26T06:45:56.504Z,95933.41
2023-09-26T06:47:00.616Z,95935.41
2023-09-26T06:48:08.003Z,95934.41
2023-09-26T06:49:11.531Z,95929.72
2023-09-26T06:50:13.721Z,95935.16
2023-09-26T06:51:15.484Z,95934.28
2023-09-26T06:52:17.228Z,95931.22
2023-09-26T06:53:19.014Z,95926.53
2023-09-26T06:54:20.818Z,95930.34
2023-09-26T06:55:22.600Z,95930.75
2023-09-26T06:56:26.594Z,95933.97
2023-09-26T06:57:28.384Z,95930.78
2023-09-26T06:58:30.768Z,95933.53
2023-09-26T06:59:32.553Z,95930.22
2023-09-26T07:00:35.375Z,95934.16
2023-09-26T07:01:37.341Z,95925.56
2023-09-26T07:02:43.892Z,95927.53
2023-09-26T07:03:50.841Z,95927.91
2023-09-26T07:04:56.041Z,95929.91
2023-09-26T07:06:08.339Z,95927.63
2023-09-26T07:07:10.083Z,95931.22
2023-09-26T07:08:15.379Z,95930.88
2023-09-26T07:09:17.913Z,95928.16
2023-09-26T07:10:19.703Z,95931.38
2023-09-26T07:11:24.088Z,95925.38
2023-09-26T07:12:27.344Z,95939.25
2023-09-26T07:13:47.567Z,95936.53
2023-09-26T07:14:50.575Z,95940.94
2023-09-26T07:16:00.748Z,95936.47
2023-09-26T07:17:03.377Z,95934.78
2023-09-26T07:18:07.877Z,95940.22
2023-09-26T07:19:09.662Z,95938.38
2023-09-26T07:20:17.283Z,95941.75
2023-09-26T07:21:19.056Z,95940.81
2023-09-26T07:22:20.812Z,95940.88
2023-09-26T07:23:24.984Z,95936.47
2023-09-26T07:24:38.476Z,95931.31
2023-09-26T07:25:44.907Z,95933.06
2023-09-26T07:26:50.869Z,95930.44
2023-09-26T07:27:52.720Z,95935.25
2023-09-26T07:28:54.605Z,95931.75
2023-09-26T07:29:59.657Z,95934.84
2023-09-26T07:31:05.719Z,95933.31
2023-09-26T07:32:07.492Z,95944.50
2023-09-26T07:33:09.147Z,95945.41
2023-09-26T07:34:15.011Z,95940.75
2023-09-26T07:35:19.438Z,95943.31
2023-09-26T07:36:21.229Z,95940.22
2023-09-26T07:37:22.917Z,95952.13
2023-09-26T07:38:24.743Z,95947.13
2023-09-26T07:39:26.617Z,95945.97
2023-09-26T07:40:33.165Z,95943.88
2023-09-26T07:41:35.467Z,95952.44
2023-09-26T07:42:38.019Z,95941.78
2023-09-26T07:43:40.920Z,95944.41
2023-09-26T07:44:42.902Z,95947.56
2023-09-26T07:45:46.825Z,95942.84
2023-09-26T07:46:50.847Z,95948.84
2023-09-26T07:47:52.625Z,95937.63
2023-09-26T07:48:54.586Z,95936.41
2023-09-26T07:49:58.782Z,95937.97
2023-09-26T07:51:00.591Z,95941.78
2023-09-26T07:52:02.515Z,95939.03
2023-09-26T07:53:04.436Z,95942.84
2023-09-26T07:54:09.369Z,95936.38
2023-09-26T07:55:13.799Z,95934.69
2023-09-26T07:56:15.642Z,95938.59
2023-09-26T07:57:22.020Z,95934.47
2023-09-26T07:58:23.966Z,95936.19
2023-09-26T07:59:28.095Z,95933.44
2023-09-26T08:00:29.798Z,95925.25
2023-09-26T08:01:34.341Z,95930.78
2023-09-26T08:02:36.108Z,95931.00
2023-09-26T08:03:40.739Z,95930.91
2023-09-26T08:04:42.723Z,95934.69
2023-09-26T08:05:47.035Z,95931.13
2023-09-26T08:06:51.598Z,95928.69
2023-09-26T08:07:56.172Z,95930.19
2023-09-26T08:08:58.830Z,95926.03
2023-09-26T08:10:03.559Z,95926.59
2023-09-26T08:11:13.839Z,95923.50
2023-09-26T08:12:15.543Z,95924.19
2023-09-26T08:13:17.157Z,95932.47
2023-09-26T08:14:21.063Z,95925.34
2023-09-26T08:15:30.160Z,95922.31
2023-09-26T08:16:31.918Z,95914.72
2023-09-26T08:17:33.808Z,95926.81
2023-09-26T08:18:35.572Z,95920.25
2023-09-26T08:19:37.709Z,95921.34
2023-09-26T08:20:39.541Z,95920.88
2023-09-26T08:21:45.545Z,95920.75
2023-09-26T08:22:51.982Z,95914.97
2023-09-26T08:23:58.766Z,95922.66
2023-09-26T08:25:02.615Z,95924.53
2023-09-26T08:26:04.771Z,95925.56
2023-09-26T08:27:07.286Z,95914.69
2023-09-26T08:28:11.691Z,95926.75
2023-09-26T08:29:13.416Z,95920.72
2023-09-26T08:30:15.095Z,95920.06
2023-09-26T08:31:19.030Z,95918.91
2023-09-26T08:32:21.116Z,95918.72
2023-09-26T08:33:28.800Z,95915.84
2023-09-26T08:34:30.492Z,95913.72
2023-09-26T08:35:32.380Z,95911.47
2023-09-26T08:36:34.333Z,95915.75
2023-09-26T08:37:39.037Z,95908.47
2023-09-26T08:38:44.701Z,95908.28
2023-09-26T08:39:48.132Z,95911.06
2023-09-26T08:40:53.280Z,95910.09
2023-09-26T08:42:01.139Z,95907.56
2023-09-26T08:43:06.150Z,95901.75
2023-09-26T08:44:08.165Z,95905.06
2023-09-26T08:45:15.280Z,95908.56
2023-09-26T08:46:22.500Z,95902.78
2023-09-26T08:47:28.477Z,95906.09
2023-09-26T08:48:33.617Z,95904.78
2023-09-26T08:49:42.520Z,95907.53
2023-09-26T08:50:46.659Z,95899.88
2023-09-26T08:51:48.483Z,95905.44
2023-09-26T08:52:53.419Z,95902.84
2023-09-26T08:53:55.283Z,95896.56
2023-09-26T08:54:57.123Z,95898.72
2023-09-26T08:55:59.627Z,95901.56
2023-09-26T08:57:02.725Z,95898.72
2023-09-26T08:58:07.372Z,95897.22
2023-09-26T08:59:09.996Z,95903.63
2023-09-26T09:00:14.652Z,95898.06
2023-09-26T09:01:18.330Z,95904.31
2023-09-26T09:02:20.244Z,95900.63
2023-09-26T09:03:24.602Z,95894.56
2023-09-26T09:04:26.444Z,95899.38
2023-09-26T09:05:30.722Z,95904.19
2023-09-26T09:06:32.521Z,95901.38
2023-09-26T09:07:34.397Z,95899.69
2023-09-26T09:08:38.459Z,95896.69
2023-09-26T09:10:06.320Z,95903.38
2023-09-26T09:11:08.194Z,95905.34
2023-09-26T09:12:27.685Z,95913.75
2023-09-26T09:13:43.643Z,95904.09
2023-09-26T09:14:51.097Z,95904.66
2023-09-26T09:15:53.102Z,95894.28
2023-09-26T09:17:00.516Z,95897.00
2023-09-26T09:18:02.439Z,95891.97
2023-09-26T09:19:04.628Z,95891.63
2023-09-26T09:20:06.950Z,95893.09
2023-09-26T09:21:34.359Z,95888.59
2023-09-26T09:22:36.233Z,95894.50
2023-09-26T09:23:47.832Z,95895.28
2023-09-26T09:24:57.500Z,95889.78
2023-09-26T09:26:11.795Z,95889.25
2023-09-26T09:27:17.869Z,95897.81
2023-09-26T09:28:26.121Z,95890.19
2023-09-26T09:29:27.806Z,95890.47
2023-09-26T09:30:37.106Z,95884.56
2023-09-26T09:31:38.944Z,95883.91
2023-09-26T09:32:42.225Z,95886.84
2023-09-26T09:33:48.194Z,95885.56
2023-09-26T09:34:50.531Z,95879.56
2023-09-26T09:35:52.504Z,95881.19
2023-09-26T09:36:57.721Z,95877.75
2023-09-26T09:37:59.873Z,95880.72
2023-09-26T09:39:03.742Z,95887.66
2023-09-26T09:40:09.550Z,95885.22
2023-09-26T09:41:11.545Z,95881.84
2023-09-26T09:42:17.987Z,95882.94
2023-09-26T09:43:21.756Z,95880.03
2023-09-26T09:44:23.645Z,95882.75
2023-09-26T09:45:32.590Z,95883.84
2023-09-26T09:46:40.085Z,95878.78
2023-09-26T09:47:46.142Z,95886.25
2023-09-26T09:48:52.209Z,95881.81
2023-09-26T09:50:01.054Z,95880.44
2023-09-26T09:51:10.309Z,95882.38
2023-09-26T09:52:12.925Z,95886.13
2023-09-26T09:53:19.066Z,95873.66
2023-09-26T09:54:22.113Z,95877.41
2023-09-26T09:55:31.012Z,95873.69
2023-09-26T09:56:35.761Z,95870.22
2023-09-26T09:57:46.907Z,95871.03
2023-09-26T09:58:58.403Z,95876.91
2023-09-26T10:00:00.751Z,95874.53
2023-09-26T10:01:08.458Z,95872.09
2023-09-26T10:02:13.626Z,95863.91
2023-09-26T10:03:17.001Z,95876.72
2023-09-26T10:04:20.361Z,95869.81
2023-09-26T10:05:25.602Z,95861.84
2023-09-26T10:06:28.362Z,95865.59
2023-09-26T10:07:34.786Z,95856.81
2023-09-26T10:08:39.485Z,95859.47
2023-09-26T10:09:42.092Z,95863.75
2023-09-26T10:10:45.041Z,95858.44
2023-09-26T10:11:48.795Z,95860.31
2023-09-26T10:13:06.287Z,95863.28
2023-09-26T10:14:23.195Z,95861.66
2023-09-26T10:15:31.418Z,95859.56
2023-09-26T10:16:33.657Z,95861.94
2023-09-26T10:17:37.180Z,95863.84
2023-09-26T10:18:43.192Z,95859.81
2023-09-26T10:19:57.849Z,95854.25
2023-09-26T10:21:22.460Z,95854.75
2023-09-26T10:22:34.440Z,95856.63
2023-09-26T10:23:43.618Z,95856.13
2023-09-26T10:24:48.142Z,95848.38
2023-09-26T10:25:50.021Z,95855.34
2023-09-26T10:26:52.311Z,95849.97
2023-09-26T10:29:07.179Z,95853.50
2023-09-26T10:30:15.487Z,95851.09
2023-09-26T10:31:19.835Z,95854.81
2023-09-26T10:32:39.934Z,95861.75
2023-09-26T10:33:54.539Z,95855.09
2023-09-26T10:35:00.579Z,95854.03
2023-09-26T10:36:03.853Z,95853.25
2023-09-26T10:37:09.444Z,95847.91
2023-09-26T10:38:20.069Z,95854.84
2023-09-26T10:39:35.449Z,95846.00
2023-09-26T10:40:37.228Z,95846.00
2023-09-26T10:42:07.130Z,95850.00
2023-09-26T10:44:11.138Z,95847.31
2023-09-26T10:45:18.938Z,95848.38
2023-09-26T10:46:20.782Z,95841.44
2023-09-26T10:47:24.038Z,95845.44
2023-09-26T10:48:28.882Z,95838.78
2023-09-26T10:49:30.721Z,95837.44
2023-09-26T10:50:33.909Z,95838.50
2023-09-26T10:51:35.870Z,95834.75
2023-09-26T10:52:42.826Z,95836.09
2023-09-26T10:53:48.655Z,95829.66
2023-09-26T10:54:52.872Z,95836.09
2023-09-26T10:55:55.374Z,95834.19
2023-09-26T10:57:00.798Z,95833.94
2023-09-26T10:58:02.491Z,95832.34
2023-09-26T10:59:04.154Z,95831.28
2023-09-26T11:00:14.126Z,95830.97
2023-09-26T11:01:18.265Z,95833.88
2023-09-26T11:02:24.590Z,95835.47
2023-09-26T11:03:26.820Z,95831.19
2023-09-26T11:04:33.157Z,95835.47
2023-09-26T11:05:37.349Z,95837.06
2023-09-26T11:06:40.751Z,95835.16
2023-09-26T11:09:08.850Z,95831.91
2023-09-26T11:10:15.648Z,95831.59
2023-09-26T11:11:20.433Z,95835.03
2023-09-26T11:12:23.287Z,95834.19
2023-09-26T11:13:26.032Z,95829.94
2023-09-26T11:14:28.271Z,95834.16
2023-09-26T11:15:32.332Z,95826.13
2023-09-26T11:16:34.134Z,95831.97
2023-09-26T11:17:39.257Z,95837.59
2023-09-26T11:18:44.846Z,95827.66
2023-09-26T11:19:46.843Z,95830.31
2023-09-26T11:21:02.498Z,95824.16
2023-09-26T11:22:11.467Z,95824.97
2023-09-26T11:23:33.179Z,95823.28
2023-09-26T11:24:34.925Z,95821.97
2023-09-26T11:25:37.834Z,95822.81
2023-09-26T11:26:39.758Z,95825.34
2023-09-26T11:27:43.483Z,95825.09
2023-09-26T11:28:47.644Z,95820.78
2023-09-26T11:29:49.404Z,95821.56
2023-09-26T11:30:50.973Z,95818.41
2023-09-26T11:31:54.585Z,95816.72
2023-09-26T11:32:56.936Z,95822.03
2023-09-26T11:33:58.933Z,95809.44
2023-09-26T11:35:00.705Z,95815.81
2023-09-26T11:36:05.150Z,95814.16
2023-09-26T11:37:08.215Z,95812.31
2023-09-26T11:38:10.194Z,95810.94
2023-09-26T11:39:18.034Z,95814.41
2023-09-26T11:40:24.105Z,95806.59
2023-09-26T11:41:35.651Z,95807.09
2023-09-26T11:42:47.442Z,95804.38
2023-09-26T11:43:49.303Z,95799.28
2023-09-26T11:44:55.555Z,95799.53
2023-09-26T11:46:06.123Z,95802.72
2023-09-26T11:47:10.116Z,95798.13
2023-09-26T11:48:11.934Z,95808.50
2023-09-26T11:49:15.188Z,95801.78
2023-09-26T11:50:17.273Z,95801.78
2023-09-26T11:51:19.639Z,95795.00
2023-09-26T11:52:21.614Z,95794.19
2023-09-26T11:53:26.946Z,95796.31
2023-09-26T11:54:28.787Z,95796.81
2023-09-26T11:55:31.566Z,95790.88
2023-09-26T11:56:34.333Z,95790.03
2023-09-26T11:57:40.580Z,95789.78
2023-09-26T11:58:42.314Z,95795.84
2023-09-26T11:59:43.990Z,95794.59
2023-09-26T12:00:45.713Z,95788.31
2023-09-26T12:01:47.708Z,95788.78
2023-09-26T12:02:51.145Z,95784.44
2023-09-26T12:03:53.091Z,95786.28
2023-09-26T12:04:54.899Z,95783.31
2023-09-26T12:05:56.592Z,95775.78
2023-09-26T12:06:58.255Z,95784.72
2023-09-26T12:08:00.143Z,95780.28
2023-09-26T12:09:04.194Z,95781.31
2023-09-26T12:10:07.742Z,95779.72
2023-09-26T12:11:09.626Z,95772.69
2023-09-26T12:12:11.674Z,95770.34
2023-09-26T12:13:13.484Z,95776.69
2023-09-26T12:14:18.659Z,95775.28
2023-09-26T12:15:25.883Z,95768.34
2023-09-26T12:16:32.704Z,95770.16
2023-09-26T12:17:37.084Z,95762.31
2023-09-26T12:18:38.912Z,95770.59
2023-09-26T12:19:40.606Z,95765.81
2023-09-26T12:20:42.423Z,95762.69
2023-09-26T12:21:46.281Z,95762.41
2023-09-26T12:22:52.496Z,95764.22
2023-09-26T12:23:55.543Z,95766.50
2023-09-26T12:24:59.806Z,95764.72
2023-09-26T12:26:01.518Z,95760.44
2023-09-26T12:27:05.115Z,95757.78
2023-09-26T12:28:06.943Z,95757.38
2023-09-26T12:29:11.587Z,95758.69
2023-09-26T12:30:14.227Z,95752.16
2023-09-26T12:31:18.396Z,95754.25
2023-09-26T12:32:22.475Z,95748.91
2023-09-26T12:33:24.439Z,95752.81
2023-09-26T12:34:26.071Z,95749.69